Weather at Normans Cay Airport

Public forecast

Using degrees Celsius for public forecast. Weather courtesy of forecast.io.

Closest aviation weather report (METAR) to Normans Cay Airport

Closest report is Lynden Pindling International Airport, 44.2 nm (81.8 km) NW. Retrieved 2021/06/20 02:00 UTC (27 minutes ago):

MYNN 200200Z 14010KT 9999 SCT020 29/25 A3010

Closest aviation forecast (TAF) to Normans Cay Airport

Closest forecast is Lynden Pindling International Airport, 44.2 nm (81.8 km) NW. Retrieved 2021-06-20 00:21 UTC (2 hours ago):

TAF MYNN 192200Z 2000/2024 1010KT 9999 SCT020 SCT120 BKN250